Decoded Metar for KCHO (CHARLOTTESVILLE in VA, USA) (IATA:CHO) | Meteo·Mobile Aviation Weather
aviador You're here:

KCHO Decoded Metar

CHARLOTTESVILLE in VA, USA
Report Time2018-09-20 03:53:00
UTC Time2018-09-20 04:49:03
Flight Rules mvfr MVFR
WindCalm
Visibility8047 m
Phenomena:Mist
Clouds:N/A
Expected CloudBase > 400 ft AGL from Temp-Dew spread
CeilingNone
Temp22°C (ISA +8)
Dew Point21°C (94% RH)
QNH1018 hPa
Density Alt1,752 ft
Elevation630 ft
Report Wrong Elevation
Raw Report
KCHO 200353Z AUTO 00000KT 5SM BR CLR 22/21 A3007 RMK AO2 SLP173
T02220206=

Extra information for KCHO:More info

Metar Taf Metar & Taf Last 4 Metars F.Rules Stats Wind Profile Meteogram Temp Stats Airport Information Weather charts Add Link Nearby VenuesMetar ALERT Operation Metar Decoded Social comments

AIRNAV info for KCHO